Cartagena Trader — 9HA3788 — position and weather

sailwx.info

Track history (hours):
 
Tides and Currents Weather Stations Pressure Air Temp Water Temp Dewpoint Dewpoint Depression Visibility Wind Speed Wind Dir Waves Ship Positions

Cartagena Trader

Last reported at 2017-Nov-28 01:17 UTC. Time now 2017-Dec-11 00:40 UTC.
Position N 26°49' W 014°59'.
Warning: this ship's position is 12 days out of date.

Length 231 m; draft 11.3 m.

Type: Ship (hazmat cat A). MMSI: 256019000.

Date/timePositionNaut miles runAvg speedWind from/ knotsBaromVisibWave heightAir tempDewpointWater temp
2017-Nov-28 01:17N 26°49' W 014°59'516.7
2017-Nov-28 00:59N 26°53' W 014°56'816.7
2017-Nov-28 00:29N 26°60' W 014°51'816.7
2017-Nov-28 00:00N 27°07' W 014°45'816.9
2017-Nov-27 23:30N 27°13' W 014°40'916.9
2017-Nov-27 23:00N 27°20' W 014°34'917.0
2017-Nov-27 22:30N 27°27' W 014°28'816.8
2017-Nov-27 22:00N 27°34' W 014°23'916.8
2017-Nov-27 21:28N 27°41' W 014°16'816.8
2017-Nov-27 21:00N 27°47' W 014°12'917.3
2017-Nov-27 20:30N 27°55' W 014°06'917.0
2017-Nov-27 20:00N 28°02' W 014°01'6516.9
2017-Nov-27 16:10N 28°54' W 013°18'617.1
2017-Nov-27 15:50N 28°59' W 013°15'616.9
2017-Nov-27 15:30N 29°03' W 013°11'816.8
2017-Nov-27 15:00N 29°10' W 013°05'16016.6
2017-Nov-27 05:24N 31°16' W 011°11'39614.0
2017-Nov-26 01:08N 35°57' W 005°36'1 8.3
2017-Nov-26 01:00N 35°58' W 005°35'4 7.9
2017-Nov-26 00:30N 35°59' W 005°30'4 7.6
2017-Nov-26 00:00N 36°01' W 005°26'4 8.7
2017-Nov-25 23:30N 36°05' W 005°24'4 8.4
2017-Nov-25 23:00N 36°09' W 005°25'1 0.4
2017-Nov-25 20:49N 36°09' W 005°26'0 0.0
2017-Nov-25 20:13N 36°09' W 005°26'0 0.0
2017-Nov-25 19:43N 36°09' W 005°26'0 0.0
2017-Nov-25 19:22N 36°09' W 005°26'0 0.0
2017-Nov-25 18:58N 36°09' W 005°26'0 0.0
2017-Nov-25 18:28N 36°09' W 005°26'0 0.0
2017-Nov-25 17:58N 36°09' W 005°26'0 0.0
2017-Nov-25 17:28N 36°09' W 005°26'0 0.0
2017-Nov-25 16:58N 36°09' W 005°26'0 0.0
2017-Nov-25 16:19N 36°09' W 005°26'0 0.0
2017-Nov-25 15:58N 36°09' W 005°26'0 0.0
2017-Nov-25 15:30N 36°09' W 005°26'0 0.0
2017-Nov-25 14:58N 36°09' W 005°26'0 0.0
2017-Nov-25 14:28N 36°09' W 005°26'0 0.0
2017-Nov-25 13:58N 36°09' W 005°26'0 0.0
2017-Nov-25 13:28N 36°09' W 005°26'0 0.0
2017-Nov-25 12:58N 36°09' W 005°26'0 0.0
2017-Nov-25 12:28N 36°09' W 005°26'1 1.2
2017-Nov-25 11:53N 36°09' W 005°26'1 0.3
2017-Nov-25 06:29N 36°08' W 005°24'0 0.0
2017-Nov-25 05:59N 36°08' W 005°24'0 0.1
2017-Nov-25 05:30N 36°08' W 005°24'0 0.1
2017-Nov-25 04:59N 36°08' W 005°24'0 0.1
2017-Nov-25 04:13N 36°08' W 005°25'0 0.1
2017-Nov-25 03:59N 36°08' W 005°25'0 0.1
2017-Nov-25 03:29N 36°08' W 005°25'0 0.2
2017-Nov-25 02:44N 36°08' W 005°24'0 0.1
2017-Nov-25 02:29N 36°08' W 005°24'0 0.1
2017-Nov-25 01:59N 36°08' W 005°24'0 0.0
2017-Nov-25 01:29N 36°08' W 005°24'0 0.0
2017-Nov-25 00:59N 36°08' W 005°24'0 0.0
2017-Nov-25 00:29N 36°08' W 005°24'0 0.0
2017-Nov-24 21:38N 36°08' W 005°24'0 0.0
2017-Nov-24 21:26N 36°08' W 005°24'0 0.0
2017-Nov-24 20:56N 36°08' W 005°24'0 0.1
2017-Nov-24 20:20N 36°08' W 005°24'0 0.0
2017-Nov-24 19:56N 36°08' W 005°24'0 0.1
2017-Nov-24 19:26N 36°08' W 005°25'0 0.0
2017-Nov-24 18:59N 36°08' W 005°25'0 0.0
2017-Nov-24 18:23N 36°08' W 005°25'0 0.2
2017-Nov-24 17:19N 36°08' W 005°25'0 0.1
2017-Nov-24 16:59N 36°08' W 005°25'0 0.0
2017-Nov-24 16:29N 36°08' W 005°25'0 0.1
2017-Nov-24 15:59N 36°08' W 005°25'0 0.0
2017-Nov-24 15:29N 36°08' W 005°25'0 0.1
2017-Nov-24 14:59N 36°08' W 005°25'0 0.0
2017-Nov-24 14:29N 36°08' W 005°25'0 0.1
2017-Nov-24 13:59N 36°08' W 005°25'0 0.0
2017-Nov-24 13:29N 36°08' W 005°25'0 0.0
2017-Nov-24 12:59N 36°08' W 005°25'0 0.1
2017-Nov-24 12:29N 36°08' W 005°25'0 0.2
2017-Nov-24 11:59N 36°08' W 005°24'0 0.0
2017-Nov-24 06:47N 36°08' W 005°24'0 0.0
2017-Nov-24 06:29N 36°08' W 005°24'0 0.0
2017-Nov-24 05:59N 36°08' W 005°24'0 0.0
2017-Nov-24 05:29N 36°08' W 005°24'0 0.2
2017-Nov-24 04:32N 36°08' W 005°25'0 0.0
2017-Nov-24 04:29N 36°08' W 005°25'0 0.1
2017-Nov-24 03:59N 36°08' W 005°25'0 0.0
2017-Nov-24 03:26N 36°08' W 005°25'0 0.1
2017-Nov-24 02:59N 36°08' W 005°25'0 0.1
2017-Nov-24 02:29N 36°08' W 005°24'0 0.2
2017-Nov-24 02:00N 36°08' W 005°24'0 0.2
2017-Nov-24 01:29N 36°08' W 005°24'0 0.1
2017-Nov-24 00:53N 36°08' W 005°24'0 0.2
2017-Nov-24 00:29N 36°08' W 005°24'0 0.0
2017-Nov-23 23:53N 36°08' W 005°24'0 0.1
2017-Nov-23 23:26N 36°08' W 005°24'0 0.0
2017-Nov-23 21:56N 36°08' W 005°24'0 0.0
2017-Nov-23 21:23N 36°08' W 005°24'0 0.1
2017-Nov-23 20:59N 36°08' W 005°24'0 0.0
2017-Nov-23 20:29N 36°08' W 005°24'0 0.0
2017-Nov-23 20:00N 36°08' W 005°24'0 0.0
2017-Nov-23 14:20N 36°08' W 005°25'2 0.9
2017-Nov-23 12:11N 36°07' W 005°24'2 8.7
2017-Nov-23 12:00N 36°05' W 005°23'3 5.5
2017-Nov-23 11:30N 36°02' W 005°23'510.8
2017-Nov-23 11:01N 35°58' W 005°26'  
Track history (hours):
 
Tides and Currents Weather Stations Pressure Air Temp Water Temp Dewpoint Dewpoint Depression Visibility Wind Speed Wind Dir Waves Ship Positions

Cartagena Trader

Last reported at 2017-Nov-28 01:17 UTC. Time now 2017-Dec-11 00:40 UTC.
Position N 26°49' W 014°59'.
Warning: this ship's position is 12 days out of date.

Length 231 m; draft 11.3 m.

Type: Ship (hazmat cat A). MMSI: 256019000.

Date/timePositionNaut miles runAvg speedWind from/ knotsBaromVisibWave heightAir tempDewpointWater temp
2017-Nov-28 01:17N 26°49' W 014°59'516.7
2017-Nov-28 00:59N 26°53' W 014°56'816.7
2017-Nov-28 00:29N 26°60' W 014°51'816.7
2017-Nov-28 00:00N 27°07' W 014°45'816.9
2017-Nov-27 23:30N 27°13' W 014°40'916.9
2017-Nov-27 23:00N 27°20' W 014°34'917.0
2017-Nov-27 22:30N 27°27' W 014°28'816.8
2017-Nov-27 22:00N 27°34' W 014°23'916.8
2017-Nov-27 21:28N 27°41' W 014°16'816.8
2017-Nov-27 21:00N 27°47' W 014°12'917.3
2017-Nov-27 20:30N 27°55' W 014°06'917.0
2017-Nov-27 20:00N 28°02' W 014°01'6516.9
2017-Nov-27 16:10N 28°54' W 013°18'617.1
2017-Nov-27 15:50N 28°59' W 013°15'616.9
2017-Nov-27 15:30N 29°03' W 013°11'816.8
2017-Nov-27 15:00N 29°10' W 013°05'16016.6
2017-Nov-27 05:24N 31°16' W 011°11'39614.0
2017-Nov-26 01:08N 35°57' W 005°36'1 8.3
2017-Nov-26 01:00N 35°58' W 005°35'4 7.9
2017-Nov-26 00:30N 35°59' W 005°30'4 7.6
2017-Nov-26 00:00N 36°01' W 005°26'4 8.7
2017-Nov-25 23:30N 36°05' W 005°24'4 8.4
2017-Nov-25 23:00N 36°09' W 005°25'1 0.4
2017-Nov-25 20:49N 36°09' W 005°26'0 0.0
2017-Nov-25 20:13N 36°09' W 005°26'0 0.0
2017-Nov-25 19:43N 36°09' W 005°26'0 0.0
2017-Nov-25 19:22N 36°09' W 005°26'0 0.0
2017-Nov-25 18:58N 36°09' W 005°26'0 0.0
2017-Nov-25 18:28N 36°09' W 005°26'0 0.0
2017-Nov-25 17:58N 36°09' W 005°26'0 0.0
2017-Nov-25 17:28N 36°09' W 005°26'0 0.0
2017-Nov-25 16:58N 36°09' W 005°26'0 0.0
2017-Nov-25 16:19N 36°09' W 005°26'0 0.0
2017-Nov-25 15:58N 36°09' W 005°26'0 0.0
2017-Nov-25 15:30N 36°09' W 005°26'0 0.0
2017-Nov-25 14:58N 36°09' W 005°26'0 0.0
2017-Nov-25 14:28N 36°09' W 005°26'0 0.0
2017-Nov-25 13:58N 36°09' W 005°26'0 0.0
2017-Nov-25 13:28N 36°09' W 005°26'0 0.0
2017-Nov-25 12:58N 36°09' W 005°26'0 0.0
2017-Nov-25 12:28N 36°09' W 005°26'1 1.2
2017-Nov-25 11:53N 36°09' W 005°26'1 0.3
2017-Nov-25 06:29N 36°08' W 005°24'0 0.0
2017-Nov-25 05:59N 36°08' W 005°24'0 0.1
2017-Nov-25 05:30N 36°08' W 005°24'0 0.1
2017-Nov-25 04:59N 36°08' W 005°24'0 0.1
2017-Nov-25 04:13N 36°08' W 005°25'0 0.1
2017-Nov-25 03:59N 36°08' W 005°25'0 0.1
2017-Nov-25 03:29N 36°08' W 005°25'0 0.2
2017-Nov-25 02:44N 36°08' W 005°24'0 0.1
2017-Nov-25 02:29N 36°08' W 005°24'0 0.1
2017-Nov-25 01:59N 36°08' W 005°24'0 0.0
2017-Nov-25 01:29N 36°08' W 005°24'0 0.0
2017-Nov-25 00:59N 36°08' W 005°24'0 0.0
2017-Nov-25 00:29N 36°08' W 005°24'0 0.0
2017-Nov-24 21:38N 36°08' W 005°24'0 0.0
2017-Nov-24 21:26N 36°08' W 005°24'0 0.0
2017-Nov-24 20:56N 36°08' W 005°24'0 0.1
2017-Nov-24 20:20N 36°08' W 005°24'0 0.0
2017-Nov-24 19:56N 36°08' W 005°24'0 0.1
2017-Nov-24 19:26N 36°08' W 005°25'0 0.0
2017-Nov-24 18:59N 36°08' W 005°25'0 0.0
2017-Nov-24 18:23N 36°08' W 005°25'0 0.2
2017-Nov-24 17:19N 36°08' W 005°25'0 0.1
2017-Nov-24 16:59N 36°08' W 005°25'0 0.0
2017-Nov-24 16:29N 36°08' W 005°25'0 0.1
2017-Nov-24 15:59N 36°08' W 005°25'0 0.0
2017-Nov-24 15:29N 36°08' W 005°25'0 0.1
2017-Nov-24 14:59N 36°08' W 005°25'0 0.0
2017-Nov-24 14:29N 36°08' W 005°25'0 0.1
2017-Nov-24 13:59N 36°08' W 005°25'0 0.0
2017-Nov-24 13:29N 36°08' W 005°25'0 0.0
2017-Nov-24 12:59N 36°08' W 005°25'0 0.1
2017-Nov-24 12:29N 36°08' W 005°25'0 0.2
2017-Nov-24 11:59N 36°08' W 005°24'0 0.0
2017-Nov-24 06:47N 36°08' W 005°24'0 0.0
2017-Nov-24 06:29N 36°08' W 005°24'0 0.0
2017-Nov-24 05:59N 36°08' W 005°24'0 0.0
2017-Nov-24 05:29N 36°08' W 005°24'0 0.2
2017-Nov-24 04:32N 36°08' W 005°25'0 0.0
2017-Nov-24 04:29N 36°08' W 005°25'0 0.1
2017-Nov-24 03:59N 36°08' W 005°25'0 0.0
2017-Nov-24 03:26N 36°08' W 005°25'0 0.1
2017-Nov-24 02:59N 36°08' W 005°25'0 0.1
2017-Nov-24 02:29N 36°08' W 005°24'0 0.2
2017-Nov-24 02:00N 36°08' W 005°24'0 0.2
2017-Nov-24 01:29N 36°08' W 005°24'0 0.1
2017-Nov-24 00:53N 36°08' W 005°24'0 0.2
2017-Nov-24 00:29N 36°08' W 005°24'0 0.0
2017-Nov-23 23:53N 36°08' W 005°24'0 0.1
2017-Nov-23 23:26N 36°08' W 005°24'0 0.0
2017-Nov-23 21:56N 36°08' W 005°24'0 0.0
2017-Nov-23 21:23N 36°08' W 005°24'0 0.1
2017-Nov-23 20:59N 36°08' W 005°24'0 0.0
2017-Nov-23 20:29N 36°08' W 005°24'0 0.0
2017-Nov-23 20:00N 36°08' W 005°24'0 0.0
2017-Nov-23 14:20N 36°08' W 005°25'2 0.9
2017-Nov-23 12:11N 36°07' W 005°24'2 8.7
2017-Nov-23 12:00N 36°05' W 005°23'3 5.5
2017-Nov-23 11:30N 36°02' W 005°23'510.8
2017-Nov-23 11:01N 35°58' W 005°26'  

Dump ship's entire track history